Time;durP1;ratioP1;P1;durP2;ratioP2;P2;SDS_P1;SDS_P2;PMS_P1;PMS_P2;Temp;Humidity;BMP_temperature;BMP_pressure;BME280_temperature;BME280_humidity;BME280_pressure;Samples;Min_cycle;Max_cycle;Signal;HPM_P1;HPM_P2
2022/12/11 00:00:44;;;;;;;89.37;42.23;;;;;;;-1.09;89.56;99311.27;2061520;84;21009;-82
2022/12/11 00:03:47;;;;;;;93.25;42.23;;;;;;;-1.09;89.65;99304.76;2098295;84;21602;-82
2022/12/11 00:06:49;;;;;;;96.60;43.13;;;;;;;-1.06;89.73;99305.00;2092248;83;21052;-83
2022/12/11 00:09:50;;;;;;;91.70;42.15;;;;;;;-1.07;89.72;99305.48;2097435;84;21020;-81
2022/12/11 00:12:51;;;;;;;91.97;40.05;;;;;;;-1.09;89.57;99313.88;2095615;83;21090;-82
2022/12/11 00:15:53;;;;;;;93.87;43.45;;;;;;;-1.10;89.70;99310.06;2096403;84;21014;-81
2022/12/11 00:18:54;;;;;;;94.92;42.23;;;;;;;-1.12;89.62;99310.19;2101292;84;21029;-82
2022/12/11 00:21:56;;;;;;;99.32;44.13;;;;;;;-1.14;89.75;99310.29;2095844;83;21050;-82
2022/12/11 00:24:57;;;;;;;95.83;43.42;;;;;;;-1.14;89.79;99311.59;2093915;84;21069;-82
2022/12/11 00:27:58;;;;;;;87.82;40.33;;;;;;;-1.13;89.88;99317.63;2098505;84;21029;-82
2022/12/11 00:31:06;;;;;;;92.50;42.40;;;;;;;-1.15;89.77;99319.53;2098323;84;20988;-82
2022/12/11 00:34:07;;;;;;;96.95;41.73;;;;;;;-1.14;89.83;99320.70;2103474;84;21128;-82
2022/12/11 00:37:09;;;;;;;93.27;40.23;;;;;;;-1.09;89.85;99324.28;2090759;84;21033;-82
2022/12/11 00:40:13;;;;;;;85.00;37.85;;;;;;;-1.07;89.92;99323.71;2096419;84;20974;-81
2022/12/11 00:43:14;;;;;;;90.35;41.10;;;;;;;-1.08;89.77;99325.94;2103154;83;21071;-82
2022/12/11 00:46:16;;;;;;;88.72;39.60;;;;;;;-1.07;89.75;99326.31;2092832;83;21061;-82
2022/12/11 00:49:17;;;;;;;94.30;41.92;;;;;;;-1.06;89.87;99325.36;2061180;85;21104;-82
2022/12/11 00:52:18;;;;;;;94.67;40.30;;;;;;;-1.04;89.88;99325.23;2083685;84;21520;-82
2022/12/11 00:55:19;;;;;;;86.65;38.90;;;;;;;-1.05;89.80;99324.88;2078049;84;21069;-82
2022/12/11 00:58:21;;;;;;;97.05;42.65;;;;;;;-1.05;89.78;99323.58;2079389;84;21041;-82
2022/12/11 01:01:24;;;;;;;91.10;40.00;;;;;;;-1.11;89.78;99314.45;2079119;84;22202;-82
2022/12/11 01:04:26;;;;;;;97.25;43.20;;;;;;;-1.10;89.86;99311.36;2087379;84;22025;-82
2022/12/11 01:07:27;;;;;;;97.42;41.92;;;;;;;-1.14;89.84;99314.67;2081527;84;21035;-82
2022/12/11 01:10:28;;;;;;;103.10;43.25;;;;;;;-1.12;89.98;99311.49;2078398;85;21049;-82
2022/12/11 01:13:30;;;;;;;98.58;42.38;;;;;;;-1.11;90.04;99318.35;2078616;85;21575;-82
2022/12/11 01:16:31;;;;;;;97.57;41.20;;;;;;;-1.11;89.99;99322.26;2071476;84;21033;-83
2022/12/11 01:19:32;;;;;;;93.07;41.48;;;;;;;-1.12;90.02;99322.39;2080228;84;21040;-82
2022/12/11 01:22:33;;;;;;;98.22;43.00;;;;;;;-1.11;90.06;99326.16;2079001;85;21172;-82
2022/12/11 01:25:37;;;;;;;105.70;42.25;;;;;;;-1.09;90.09;99333.40;2056599;85;21009;-81
2022/12/11 01:28:39;;;;;;;92.10;39.92;;;;;;;-1.09;90.20;99332.09;2077846;84;21013;-82
2022/12/11 01:31:40;;;;;;;96.05;41.30;;;;;;;-1.12;90.24;99336.70;2078283;84;21033;-83
2022/12/11 01:34:42;;;;;;;100.80;43.13;;;;;;;-1.12;90.21;99336.23;2078595;84;21081;-82
2022/12/11 01:37:43;;;;;;;87.15;39.35;;;;;;;-1.15;90.28;99328.64;2090808;85;21037;-81
2022/12/11 01:40:50;;;;;;;98.10;40.70;;;;;;;-1.19;90.17;99316.30;2061639;85;21127;-82
2022/12/11 01:44:08;;;;;;;96.15;40.38;;;;;;;-1.24;90.18;99320.17;2087412;84;21072;-82
2022/12/11 01:47:11;;;;;;;93.07;38.92;;;;;;;-1.25;90.22;99313.32;2088032;83;21117;-82
2022/12/11 01:50:12;;;;;;;92.02;40.70;;;;;;;-1.28;90.53;99309.16;2104575;84;22342;-81
2022/12/11 01:53:19;;;;;;;88.45;38.40;;;;;;;-1.30;90.41;99301.93;2106385;84;21055;-81
2022/12/11 01:56:23;;;;;;;86.20;38.70;;;;;;;-1.29;90.71;99306.21;2104255;83;21102;-82
2022/12/11 01:59:28;;;;;;;107.92;41.48;;;;;;;-1.29;90.76;99307.98;2109497;83;21059;-82
2022/12/11 02:02:30;;;;;;;101.27;39.65;;;;;;;-1.30;90.74;99303.70;2103178;84;21185;-82
2022/12/11 02:05:31;;;;;;;94.28;39.13;;;;;;;-1.31;90.64;99292.95;2102552;84;21614;-82
2022/12/11 02:08:33;;;;;;;103.90;40.35;;;;;;;-1.31;90.75;99286.44;2073713;84;21572;-81
2022/12/11 02:11:58;;;;;;;91.78;39.10;;;;;;;-1.32;90.81;99283.45;2111972;83;21049;-81
2022/12/11 02:15:21;;;;;;;97.05;37.38;;;;;;;-1.33;90.82;99277.91;2112232;83;21478;-81
2022/12/11 02:18:38;;;;;;;92.00;38.90;;;;;;;-1.33;90.82;99270.09;2110254;83;21593;-81
2022/12/11 02:21:45;;;;;;;89.65;36.70;;;;;;;-1.33;90.97;99268.32;2116994;83;21548;-81
2022/12/11 02:25:10;;;;;;;92.90;38.38;;;;;;;-1.35;90.90;99275.43;2118472;83;20965;-81
2022/12/11 02:28:22;;;;;;;93.10;38.60;;;;;;;-1.37;90.78;99270.32;2111716;83;21501;-81
2022/12/11 02:31:28;;;;;;;98.90;40.15;;;;;;;-1.37;90.76;99263.81;2113715;83;21063;-81
2022/12/11 02:35:11;;;;;;;92.53;39.03;;;;;;;-1.36;90.73;99266.77;2117504;83;20995;-81
2022/12/11 02:38:20;;;;;;;93.42;37.35;;;;;;;-1.36;90.78;99269.37;2110343;83;21054;-81
2022/12/11 02:41:24;;;;;;;91.08;38.30;;;;;;;-1.39;90.67;99268.30;2112962;83;21094;-82
2022/12/11 02:44:29;;;;;;;87.08;37.13;;;;;;;-1.38;90.73;99265.22;2113016;83;21030;-80
2022/12/11 02:47:33;;;;;;;88.00;38.25;;;;;;;-1.37;90.64;99274.23;2106720;83;20992;-81
2022/12/11 02:50:38;;;;;;;84.65;37.20;;;;;;;-1.35;90.64;99266.32;2101572;84;21060;-81
2022/12/11 02:53:43;;;;;;;86.72;37.88;;;;;;;-1.33;90.62;99265.72;2099066;84;21489;-80
2022/12/11 02:57:04;;;;;;;89.22;36.70;;;;;;;-1.31;90.60;99270.82;2099695;84;21388;-81
2022/12/11 03:00:09;;;;;;;89.05;37.38;;;;;;;-1.33;90.50;99264.89;2095544;84;21066;-80
2022/12/11 03:03:11;;;;;;;79.92;35.55;;;;;;;-1.34;90.42;99262.77;2093064;84;21045;-81
2022/12/11 03:06:17;;;;;;;83.95;35.13;;;;;;;-1.37;90.33;99282.03;2104851;84;21026;-81
2022/12/11 03:09:19;;;;;;;87.53;35.38;;;;;;;-1.37;90.31;99277.30;2099517;83;21540;-81
2022/12/11 03:12:26;;;;;;;82.50;35.10;;;;;;;-1.41;90.39;99278.01;2099561;83;21622;-80
2022/12/11 03:15:36;;;;;;;83.70;36.25;;;;;;;-1.41;90.38;99285.81;2090459;84;21562;-81
2022/12/11 03:18:51;;;;;;;79.58;35.43;;;;;;;-1.39;90.38;99283.08;2098370;83;21152;-80
2022/12/11 03:22:00;;;;;;;82.15;36.58;;;;;;;-1.38;90.38;99282.13;2097527;84;21025;-81
2022/12/11 03:25:07;;;;;;;81.92;34.13;;;;;;;-1.36;90.43;99280.26;2096013;84;21013;-81
2022/12/11 03:28:19;;;;;;;82.22;35.20;;;;;;;-1.34;90.41;99281.46;2095674;84;21022;-81
2022/12/11 03:31:32;;;;;;;83.62;36.10;;;;;;;-1.36;90.25;99279.78;2100956;83;21533;-81
2022/12/11 03:34:48;;;;;;;80.35;35.48;;;;;;;-1.36;90.29;99279.78;2096180;84;21021;-81
2022/12/11 03:37:51;;;;;;;82.77;34.33;;;;;;;-1.36;90.32;99277.66;2092270;84;21750;-80
2022/12/11 03:40:57;;;;;;;86.47;36.65;;;;;;;-1.35;90.32;99281.94;2102041;84;21591;-80
2022/12/11 03:43:59;;;;;;;78.57;35.10;;;;;;;-1.34;90.28;99280.16;2093298;84;21018;-81
2022/12/11 03:47:04;;;;;;;79.55;33.55;;;;;;;-1.33;90.17;99288.31;2095872;84;21541;-80
2022/12/11 03:50:10;;;;;;;72.67;32.90;;;;;;;-1.37;89.97;99278.13;2082011;84;21097;-81
2022/12/11 03:53:12;;;;;;;80.05;35.75;;;;;;;-1.36;89.93;99281.08;2083173;84;21073;-81
2022/12/11 03:56:15;;;;;;;76.70;34.53;;;;;;;-1.38;89.74;99267.81;2083438;84;21057;-80
2022/12/11 03:59:16;;;;;;;80.77;35.88;;;;;;;-1.39;89.83;99272.67;2080976;84;21102;-80
2022/12/11 04:02:17;;;;;;;78.07;33.75;;;;;;;-1.38;89.74;99274.32;2079227;84;21096;-81
2022/12/11 04:05:18;;;;;;;79.47;33.75;;;;;;;-1.42;89.37;99270.30;2080983;84;21112;-81
2022/12/11 04:08:21;;;;;;;75.32;33.20;;;;;;;-1.45;89.37;99266.14;2074399;84;21486;-81
2022/12/11 04:11:34;;;;;;;79.10;34.90;;;;;;;-1.45;89.35;99254.91;2061819;86;21074;-80
2022/12/11 04:24:34;;;;;;;72.53;30.70;;;;;;;-1.47;89.27;99239.39;2043730;86;21062;-80
2022/12/11 04:27:48;;;;;;;77.82;33.35;;;;;;;-1.48;89.26;99248.16;2032659;86;21113;-80
2022/12/11 04:30:49;;;;;;;71.10;32.33;;;;;;;-1.49;89.15;99242.60;2062926;84;21087;-81
2022/12/11 04:33:50;;;;;;;76.15;35.13;;;;;;;-1.49;89.16;99249.11;2063328;85;21035;-80
2022/12/11 04:36:51;;;;;;;80.65;35.20;;;;;;;-1.49;89.27;99241.30;2048253;86;21059;-80
2022/12/11 04:39:52;;;;;;;75.37;33.88;;;;;;;-1.48;89.30;99237.74;2073629;85;20991;-80
2022/12/11 04:42:53;;;;;;;78.35;34.80;;;;;;;-1.47;89.30;99243.30;2072797;85;21093;-80
2022/12/11 04:46:17;;;;;;;82.53;35.23;;;;;;;-1.48;89.14;99236.45;2073899;85;21074;-79
2022/12/11 04:49:18;;;;;;;88.90;36.58;;;;;;;-1.51;89.19;99233.24;2066226;84;21621;-79
2022/12/11 04:52:19;;;;;;;85.20;36.17;;;;;;;-1.51;89.19;99235.84;2090863;84;21130;-80
2022/12/11 04:55:21;;;;;;;77.80;33.92;;;;;;;-1.53;89.25;99234.64;2088471;84;21583;-80
2022/12/11 04:58:23;;;;;;;78.70;33.73;;;;;;;-1.53;89.22;99235.12;2086323;84;21069;-80
2022/12/11 05:01:24;;;;;;;78.37;34.30;;;;;;;-1.55;89.06;99239.12;2089969;84;21071;-80
2022/12/11 05:04:33;;;;;;;73.60;33.98;;;;;;;-1.56;89.08;99232.27;2095352;83;21060;-79
2022/12/11 05:07:36;;;;;;;71.20;32.30;;;;;;;-1.54;89.07;99236.07;2104946;83;21021;-80
2022/12/11 05:10:37;;;;;;;77.53;34.20;;;;;;;-1.54;89.01;99231.69;2107751;83;20998;-80
2022/12/11 05:13:42;;;;;;;65.60;31.57;;;;;;;-1.55;88.82;99230.02;2115210;83;21061;-80
2022/12/11 05:16:43;;;;;;;72.20;34.03;;;;;;;-1.54;88.75;99234.77;2111797;83;21057;-80
2022/12/11 05:19:49;;;;;;;66.62;32.15;;;;;;;-1.55;88.79;99236.52;2110345;83;21439;-80
2022/12/11 05:22:50;;;;;;;64.32;31.40;;;;;;;-1.54;88.78;99238.20;2110438;83;21010;-80
2022/12/11 05:25:55;;;;;;;68.12;30.72;;;;;;;-1.54;88.25;99241.27;2111208;83;21370;-82
2022/12/11 05:28:56;;;;;;;59.18;29.05;;;;;;;-1.56;88.32;99234.05;2114385;83;21540;-80
2022/12/11 05:31:57;;;;;;;63.63;30.57;;;;;;;-1.57;88.25;99233.22;2110793;83;21936;-81
2022/12/11 05:34:58;;;;;;;67.12;32.53;;;;;;;-1.56;88.25;99240.55;2102392;83;21073;-80
2022/12/11 05:38:00;;;;;;;55.73;27.98;;;;;;;-1.57;88.24;99229.31;2113751;83;21114;-80
2022/12/11 05:41:04;;;;;;;64.75;30.65;;;;;;;-1.58;88.03;99225.03;2109871;83;21017;-80
2022/12/11 05:44:05;;;;;;;56.42;27.35;;;;;;;-1.60;87.98;99233.44;2113028;83;21537;-80
2022/12/11 05:47:07;;;;;;;59.27;27.58;;;;;;;-1.62;87.65;99232.72;2108284;83;21395;-80
2022/12/11 05:50:09;;;;;;;60.43;29.07;;;;;;;-1.64;87.62;99231.52;2124285;82;21624;-80
2022/12/11 05:53:11;;;;;;;60.25;29.15;;;;;;;-1.63;87.43;99230.59;2124628;82;21089;-80
2022/12/11 05:56:26;;;;;;;55.15;27.67;;;;;;;-1.64;87.76;99222.88;2128039;82;21046;-79
2022/12/11 05:59:28;;;;;;;60.92;30.25;;;;;;;-1.65;87.41;99221.23;2120249;83;21851;-81
2022/12/11 06:02:30;;;;;;;60.17;31.73;;;;;;;-1.68;87.12;99226.66;2122483;82;21075;-81
2022/12/11 06:05:30;;;;;;;76.53;36.00;;;;;;;-1.70;87.23;99224.63;2127043;83;21013;-80
2022/12/11 06:08:33;;;;;;;56.90;30.77;;;;;;;-1.71;87.31;99226.41;2123008;83;21051;-80
2022/12/11 06:11:35;;;;;;;62.15;28.42;;;;;;;-1.70;87.03;99233.73;2118162;82;21042;-80
2022/12/11 06:14:36;;;;;;;57.03;29.75;;;;;;;-1.71;87.11;99239.89;2119653;82;21015;-80
2022/12/11 06:17:37;;;;;;;57.75;28.12;;;;;;;-1.71;87.01;99241.19;2128277;82;20993;-80
2022/12/11 06:20:38;;;;;;;56.88;27.07;;;;;;;-1.72;87.02;99241.63;2125513;82;20973;-80
2022/12/11 06:23:41;;;;;;;47.43;25.50;;;;;;;-1.73;86.52;99241.28;2127737;83;21607;-80
2022/12/11 06:26:42;;;;;;;54.93;27.65;;;;;;;-1.74;86.52;99246.14;2119652;82;21003;-80
2022/12/11 06:29:43;;;;;;;47.80;24.12;;;;;;;-1.78;86.25;99242.08;2126085;82;21001;-80
2022/12/11 06:32:44;;;;;;;52.83;25.60;;;;;;;-1.77;86.32;99256.77;2125000;82;21097;-80
2022/12/11 06:35:45;;;;;;;52.98;26.37;;;;;;;-1.76;86.19;99264.09;2126134;83;21582;-80
2022/12/11 06:38:47;;;;;;;51.88;26.23;;;;;;;-1.73;86.39;99261.27;2123229;82;21029;-80
2022/12/11 06:41:48;;;;;;;55.70;29.37;;;;;;;-1.71;86.59;99261.52;2124179;83;21049;-80
2022/12/11 06:44:49;;;;;;;57.50;28.87;;;;;;;-1.72;86.67;99258.55;2129701;82;20950;-80
2022/12/11 06:47:50;;;;;;;54.10;27.50;;;;;;;-1.72;86.70;99264.22;2126024;82;21057;-80
2022/12/11 06:50:51;;;;;;;;;;;;;;;-1.73;86.49;99263.87;2079497;84;21091;-80
2022/12/11 06:53:54;;;;;;;51.75;27.40;;;;;;;-1.76;86.28;99267.52;2037532;86;20100;-80
2022/12/11 06:56:56;;;;;;;54.75;28.00;;;;;;;-1.77;86.49;99271.52;2045988;86;21047;-77
2022/12/11 06:59:57;;;;;;;46.42;25.57;;;;;;;-1.76;86.54;99277.09;2070647;84;21550;-80
2022/12/11 07:02:58;;;;;;;54.42;28.15;;;;;;;-1.77;85.89;99280.61;2073683;84;21049;-80
2022/12/11 07:06:02;;;;;;;52.55;27.30;;;;;;;-1.78;86.35;99279.79;2080748;84;21076;-81
2022/12/11 07:09:05;;;;;;;50.75;27.27;;;;;;;-1.77;86.31;99281.47;2075081;84;20999;-80
2022/12/11 07:12:07;;;;;;;47.85;25.52;;;;;;;-1.76;86.21;99264.09;2082463;84;21108;-80
2022/12/11 07:15:09;;;;;;;46.35;25.35;;;;;;;-1.76;86.05;99262.80;2074919;84;21601;-81
2022/12/11 07:18:10;;;;;;;49.83;25.72;;;;;;;-1.78;85.61;99264.19;2047382;84;21494;-81
2022/12/11 07:21:13;;;;;;;46.35;23.47;;;;;;;-1.81;85.47;99260.03;2080592;84;21016;-82
2022/12/11 07:24:14;;;;;;;45.67;25.25;;;;;;;-1.81;85.24;99257.91;2057404;84;21136;-81
2022/12/11 07:27:15;;;;;;;45.05;23.20;;;;;;;-1.84;85.09;99260.73;2066692;84;22267;-80
2022/12/11 07:30:16;;;;;;;47.05;26.23;;;;;;;-1.85;85.34;99265.10;2077403;84;22362;-80
2022/12/11 07:33:17;;;;;;;47.50;25.30;;;;;;;-1.87;84.86;99275.25;2043995;85;21572;-81
2022/12/11 07:36:18;;;;;;;48.25;24.45;;;;;;;-1.88;85.26;99278.33;2076130;84;21066;-81
2022/12/11 07:39:19;;;;;;;50.92;26.25;;;;;;;-1.87;85.21;99277.84;2079766;84;21057;-81
2022/12/11 07:42:21;;;;;;;48.80;24.82;;;;;;;-1.87;85.24;99279.15;2081747;84;21125;-80
2022/12/11 07:45:22;;;;;;;47.10;25.55;;;;;;;-1.88;85.18;99270.52;2084771;84;21072;-81
2022/12/11 07:48:23;;;;;;;47.67;26.25;;;;;;;-1.90;84.92;99284.09;2079345;84;20997;-77
2022/12/11 07:51:29;;;;;;;44.67;25.77;;;;;;;-1.88;85.37;99277.50;2098871;84;21042;-80
2022/12/11 07:54:32;;;;;;;56.27;27.77;;;;;;;-1.88;85.20;99278.33;2102664;83;21006;-78
2022/12/11 07:57:33;;;;;;;49.00;27.52;;;;;;;-1.89;84.84;99280.55;2094846;84;21588;-80
2022/12/11 08:00:36;;;;;;;48.40;26.42;;;;;;;-1.89;85.18;99280.55;2096858;84;21649;-79
2022/12/11 08:03:39;;;;;;;48.58;26.07;;;;;;;-1.87;84.98;99281.28;2094857;84;21121;-77
2022/12/11 08:06:41;;;;;;;44.83;24.63;;;;;;;-1.85;85.04;99281.18;2081232;84;21059;-78
2022/12/11 08:09:43;;;;;;;41.75;22.15;;;;;;;-1.85;85.04;99285.08;2073921;85;21051;-79
2022/12/11 08:12:46;;;;;;;42.75;23.83;;;;;;;-1.86;84.48;99280.36;2064812;84;21053;-78
2022/12/11 08:15:47;;;;;;;46.35;25.40;;;;;;;-1.85;84.86;99284.61;2067099;84;22185;-77
2022/12/11 08:18:50;;;;;;;45.45;25.02;;;;;;;-1.84;84.76;99274.55;2097208;84;21077;-77
2022/12/11 08:21:51;;;;;;;42.60;22.35;;;;;;;-1.85;84.86;99276.80;2090666;84;21005;-80
2022/12/11 08:24:52;;;;;;;42.45;23.38;;;;;;;-1.86;84.78;99273.00;2093230;83;21069;-78
2022/12/11 08:27:53;;;;;;;42.98;23.20;;;;;;;-1.87;84.41;99281.75;2089263;83;21032;-80
2022/12/11 08:30:55;;;;;;;42.53;23.55;;;;;;;-1.90;84.63;99273.69;2089635;83;21787;-77
2022/12/11 08:34:01;;;;;;;44.10;25.57;;;;;;;-1.89;84.59;99275.81;2105657;83;21037;-78
2022/12/11 08:37:02;;;;;;;44.77;25.02;;;;;;;-1.91;84.66;99266.84;2071340;84;21102;-78
2022/12/11 08:40:06;;;;;;;43.55;23.32;;;;;;;-1.91;84.73;99275.12;2044373;85;21594;-77
2022/12/11 08:43:09;;;;;;;42.60;24.23;;;;;;;-1.91;84.58;99277.25;2109994;83;21057;-77
2022/12/11 08:46:12;;;;;;;46.92;25.08;;;;;;;-1.95;84.58;99274.48;2111994;83;21327;-78
2022/12/11 08:49:13;;;;;;;43.63;23.15;;;;;;;-1.96;84.61;99272.00;2103588;82;21604;-78
2022/12/11 08:52:19;;;;;;;42.88;23.90;;;;;;;-1.98;84.59;99273.88;2091764;83;21551;-78
2022/12/11 08:55:22;;;;;;;49.10;23.95;;;;;;;-2.01;84.80;99274.91;2074211;85;21583;-82
2022/12/11 08:58:24;;;;;;;44.55;24.50;;;;;;;-2.05;84.41;99275.61;2073877;85;21077;-80
2022/12/11 09:01:31;;;;;;;43.30;23.60;;;;;;;-2.07;84.78;99277.95;2059164;85;21100;-78
2022/12/11 09:04:31;;;;;;;47.20;24.87;;;;;;;-2.10;84.77;99277.69;2049213;85;20997;-78
2022/12/11 09:07:38;;;;;;;51.50;27.80;;;;;;;-2.11;84.74;99281.23;2080177;84;21024;-79
2022/12/11 09:10:41;;;;;;;47.35;24.67;;;;;;;-2.11;84.89;99271.28;2086583;84;21015;-78
2022/12/11 09:13:44;;;;;;;46.00;23.47;;;;;;;-2.12;84.66;99269.64;2081448;84;21043;-78
2022/12/11 09:16:46;;;;;;;47.80;25.85;;;;;;;-2.14;84.73;99258.50;2085537;84;21728;-80
2022/12/11 09:19:47;;;;;;;49.13;25.30;;;;;;;-2.11;84.97;99263.48;2088589;84;21637;-78
2022/12/11 09:22:51;;;;;;;42.23;23.57;;;;;;;-2.10;84.77;99260.80;2086122;83;21593;-78
2022/12/11 09:25:52;;;;;;;46.80;25.32;;;;;;;-2.11;84.75;99263.05;2084244;84;21133;-79
2022/12/11 09:28:54;;;;;;;51.33;26.10;;;;;;;-2.10;84.99;99255.59;2087256;84;21569;-80
2022/12/11 09:31:55;;;;;;;47.20;25.35;;;;;;;-2.06;85.01;99254.91;2088791;84;21070;-78
2022/12/11 09:34:56;;;;;;;46.63;23.55;;;;;;;-2.05;85.01;99257.89;2073082;84;21077;-82
2022/12/11 09:37:58;;;;;;;39.58;21.87;;;;;;;-2.06;84.73;99240.61;2074666;85;21080;-82
2022/12/11 09:41:01;;;;;;;39.58;20.50;;;;;;;-2.09;84.54;99243.42;2075154;84;20986;-82
2022/12/11 09:44:25;;;;;;;41.05;21.77;;;;;;;-2.12;84.04;99231.47;2071627;84;21093;-77
2022/12/11 09:47:44;;;;;;;39.83;20.02;;;;;;;-2.16;83.97;99231.34;2065946;85;21078;-76
2022/12/11 09:50:56;;;;;;;32.38;17.70;;;;;;;-2.17;84.01;99230.13;2092226;84;21051;-87
2022/12/11 09:54:04;;;;;;;33.18;17.77;;;;;;;-2.19;83.86;99230.26;2109781;83;20987;-78
2022/12/11 09:57:16;;;;;;;35.90;19.25;;;;;;;-2.21;83.33;99230.83;2113926;83;21546;-77
2022/12/11 10:00:41;;;;;;;45.70;24.55;;;;;;;-2.25;83.42;99213.80;2099923;84;21048;-79
2022/12/11 10:04:20;;;;;;;47.35;25.35;;;;;;;-2.29;83.83;99220.95;2093622;84;21058;-82
2022/12/11 10:08:10;;;;;;;50.65;26.23;;;;;;;-2.32;84.03;99224.25;2081818;83;21538;-83
2022/12/11 10:11:59;;;;;;;47.93;24.80;;;;;;;-2.32;84.10;99214.67;2113789;83;21077;-82
2022/12/11 10:15:17;;;;;;;45.50;25.50;;;;;;;-2.33;84.03;99213.03;2106144;83;21075;-88
2022/12/11 10:18:21;;;;;;;42.67;22.02;;;;;;;-2.38;83.79;99208.61;2106481;83;21019;-84
2022/12/11 10:21:23;;;;;;;42.03;23.18;;;;;;;-2.39;83.27;99212.60;2109218;83;21045;-86
2022/12/11 10:24:57;;;;;;;42.70;22.65;;;;;;;-2.41;83.44;99209.30;2114329;83;21073;-86
2022/12/11 10:28:19;;;;;;;41.23;21.35;;;;;;;-2.39;83.75;99210.86;2108121;83;20990;-85
2022/12/11 10:31:45;;;;;;;45.55;24.67;;;;;;;-2.36;83.46;99200.73;2088874;83;21182;-85
2022/12/11 10:34:54;;;;;;;43.48;24.18;;;;;;;-2.35;83.78;99200.60;2088605;84;20996;-85
2022/12/11 10:38:07;;;;;;;41.40;23.65;;;;;;;-2.32;83.92;99188.69;2094230;83;21030;-86
2022/12/11 10:41:17;;;;;;;48.73;25.43;;;;;;;-2.30;83.80;99186.83;2090314;83;21533;-85
2022/12/11 10:44:30;;;;;;;42.17;22.90;;;;;;;-2.28;83.70;99184.09;2088765;83;21009;-86
2022/12/11 10:47:32;;;;;;;41.65;21.73;;;;;;;-2.27;83.73;99184.48;2092733;83;21038;-86
2022/12/11 10:50:37;;;;;;;41.33;23.07;;;;;;;-2.28;83.15;99180.20;2066152;84;21027;-86
2022/12/11 10:53:42;;;;;;;44.13;26.02;;;;;;;-2.27;83.55;99187.08;2090397;84;21050;-85
2022/12/11 10:56:48;;;;;;;42.90;23.92;;;;;;;-2.26;83.15;99178.33;2092021;83;21014;-86
2022/12/11 10:59:52;;;;;;;44.10;23.65;;;;;;;-2.24;83.15;99179.54;2088747;83;20967;-87
2022/12/11 11:03:01;;;;;;;41.70;22.75;;;;;;;-2.23;83.18;99182.02;2089858;83;21016;-83
2022/12/11 11:06:14;;;;;;;38.83;22.70;;;;;;;-2.20;83.04;99183.09;2092997;83;21042;-86
2022/12/11 11:09:38;;;;;;;36.15;20.02;;;;;;;-2.21;82.59;99165.84;2092005;83;21053;-84
2022/12/11 11:12:44;;;;;;;34.25;20.75;;;;;;;-2.21;82.61;99172.83;2092976;83;21472;-84
2022/12/11 11:16:02;;;;;;;40.15;21.85;;;;;;;-2.21;82.14;99165.03;2095537;83;21490;-84
2022/12/11 11:19:07;;;;;;;38.23;22.87;;;;;;;-2.22;82.61;99168.55;2099988;83;21078;-83
2022/12/11 11:22:23;;;;;;;41.75;24.90;;;;;;;-2.23;82.36;99164.30;2092041;83;21042;-83
2022/12/11 11:25:28;;;;;;;54.18;29.63;;;;;;;-2.29;82.37;99158.59;2095854;83;21720;-84
2022/12/11 11:28:42;;;;;;;44.93;25.90;;;;;;;-2.27;82.68;99157.20;2088941;84;21048;-84
2022/12/11 11:31:47;;;;;;;43.05;25.23;;;;;;;-2.30;82.35;99155.64;2095238;83;21066;-83
2022/12/11 11:34:48;;;;;;;37.73;22.52;;;;;;;-2.34;82.50;99153.36;2107250;83;21016;-83
2022/12/11 11:38:07;;;;;;;39.73;24.87;;;;;;;-2.36;82.62;99143.09;2071891;83;21015;-84
2022/12/11 11:41:32;;;;;;;46.35;26.10;;;;;;;-2.40;82.49;99142.10;2060437;83;21073;-83
2022/12/11 11:44:40;;;;;;;39.10;24.70;;;;;;;-2.40;82.78;99136.91;2055058;84;21034;-82
2022/12/11 11:47:53;;;;;;;45.33;25.92;;;;;;;-2.40;82.98;99144.23;2098176;83;21135;-83
2022/12/11 11:51:08;;;;;;;47.80;26.93;;;;;;;-2.39;83.02;99136.81;2084008;84;21562;-84
2022/12/11 11:54:34;;;;;;;39.85;25.10;;;;;;;-2.39;83.08;99141.16;2085135;84;21037;-84
2022/12/11 11:58:06;;;;;;;48.65;27.48;;;;;;;-2.40;83.06;99141.63;2061132;85;21733;-84
2022/12/11 12:01:24;;;;;;;39.37;22.27;;;;;;;-2.39;83.09;99139.85;2095245;84;21040;-84
2022/12/11 12:04:41;;;;;;;44.83;24.70;;;;;;;-2.40;82.53;99137.73;2074211;85;21510;-84
2022/12/11 12:08:06;;;;;;;37.33;22.07;;;;;;;-2.42;82.51;99142.23;2078415;84;21094;-84
2022/12/11 12:11:41;;;;;;;33.78;19.20;;;;;;;-2.44;82.48;99136.30;2099121;83;21383;-83
2022/12/11 12:15:10;;;;;;;47.73;28.25;;;;;;;-2.45;82.21;99128.60;2116053;83;21851;-82
2022/12/11 12:18:21;;;;;;;39.65;24.98;;;;;;;-2.47;82.43;99122.23;2110034;83;21062;-77
2022/12/11 12:21:36;;;;;;;42.08;24.75;;;;;;;-2.47;82.21;99126.61;2112424;83;21094;-80
2022/12/11 12:25:06;;;;;;;45.00;24.30;;;;;;;-2.48;82.41;99116.66;2111000;83;21069;-78
2022/12/11 12:28:34;;;;;;;49.65;26.60;;;;;;;-2.49;82.40;99121.50;2115938;83;21012;-79
2022/12/11 12:31:48;;;;;;;38.80;22.77;;;;;;;-2.47;82.29;99117.04;2110587;83;21050;-80
2022/12/11 12:35:21;;;;;;;39.58;21.80;;;;;;;-2.50;82.05;99110.29;2111859;83;22334;-85
2022/12/11 12:38:46;;;;;;;38.83;21.40;;;;;;;-2.52;82.05;99109.56;2105736;83;21502;-80
2022/12/11 12:42:29;;;;;;;39.55;21.97;;;;;;;-2.52;81.93;99106.14;2109818;83;21079;-80
2022/12/11 12:46:02;;;;;;;41.25;22.15;;;;;;;-2.55;81.81;99114.15;2108469;83;21159;-78
2022/12/11 12:49:04;;;;;;;;;;;;;;;-2.59;81.75;99117.44;2115903;83;21085;-82
2022/12/11 12:52:16;;;;;;;37.35;21.48;;;;;;;-2.58;81.95;99122.98;2108225;83;20546;-80
2022/12/11 12:55:30;;;;;;;41.02;23.60;;;;;;;-2.58;82.00;99116.48;2114863;83;21030;-84
2022/12/11 12:58:45;;;;;;;44.35;24.30;;;;;;;-2.59;82.07;99120.48;2108395;83;21050;-82
2022/12/11 13:01:56;;;;;;;38.02;21.50;;;;;;;-2.58;82.15;99119.56;2107279;83;21097;-84
2022/12/11 13:05:09;;;;;;;35.20;21.35;;;;;;;-2.60;81.92;99111.04;2106552;83;21557;-85
2022/12/11 13:08:13;;;;;;;39.20;22.70;;;;;;;-2.62;81.94;99113.77;2103118;83;21122;-81
2022/12/11 13:11:18;;;;;;;35.60;20.35;;;;;;;-2.63;81.91;99115.98;2109979;83;21561;-85
2022/12/11 13:14:31;;;;;;;32.83;20.08;;;;;;;-2.64;82.00;99120.82;2085400;83;21026;-85
2022/12/11 13:17:40;;;;;;;37.23;22.10;;;;;;;-2.62;81.92;99125.45;2105951;83;21067;-84
2022/12/11 13:20:51;;;;;;;38.60;21.12;;;;;;;-2.63;81.87;99131.56;2116095;83;21632;-80
2022/12/11 13:23:57;;;;;;;;;;;;;;;-2.65;81.99;99124.34;2122801;83;21072;-83
2022/12/11 13:27:31;;;;;;;38.20;22.00;;;;;;;-2.66;82.13;99122.69;2119633;83;20193;-86
2022/12/11 13:30:36;;;;;;;39.58;22.22;;;;;;;-2.64;82.17;99113.50;2117812;83;21058;-78
2022/12/11 13:33:48;;;;;;;34.63;20.72;;;;;;;-2.65;82.06;99115.72;2093105;83;21427;-83
2022/12/11 13:37:04;;;;;;;29.27;18.48;;;;;;;-2.68;81.98;99123.25;2119487;83;21067;-84
2022/12/11 13:40:20;;;;;;;30.00;18.40;;;;;;;-2.66;81.94;99117.49;2120882;83;21043;-87
2022/12/11 13:43:33;;;;;;;29.15;16.85;;;;;;;-2.67;81.49;99111.13;2106848;83;21501;-88
2022/12/11 13:46:37;;;;;;;33.15;18.92;;;;;;;-2.68;81.71;99119.83;2121137;83;21710;-89
2022/12/11 13:49:49;;;;;;;28.55;16.95;;;;;;;-2.68;81.35;99119.83;2081262;83;21031;-87
2022/12/11 13:52:59;;;;;;;30.57;17.12;;;;;;;-2.71;81.07;99123.00;2047327;85;21095;-88
2022/12/11 13:56:21;;;;;;;28.02;16.00;;;;;;;-2.73;81.35;99118.40;2082661;84;21086;-88
2022/12/11 13:59:40;;;;;;;34.95;18.25;;;;;;;-2.72;81.28;99125.24;2074830;84;21692;-87
2022/12/11 14:02:51;;;;;;;29.55;16.35;;;;;;;-2.72;81.20;99128.31;2095035;83;21086;-87
2022/12/11 14:06:03;;;;;;;28.27;16.70;;;;;;;-2.75;80.72;99125.93;2111423;83;21080;-86
2022/12/11 14:09:14;;;;;;;22.00;15.18;;;;;;;-2.76;80.79;99128.15;2110508;83;21635;-87
2022/12/11 14:12:21;;;;;;;25.68;15.38;;;;;;;-2.76;80.80;99129.45;2101030;83;21059;-88
2022/12/11 14:15:25;;;;;;;25.75;16.30;;;;;;;-2.77;80.93;99123.42;2108437;83;21154;-86
2022/12/11 14:18:31;;;;;;;26.17;16.40;;;;;;;-2.78;80.76;99123.55;2104650;83;20996;-86
2022/12/11 14:21:37;;;;;;;24.92;15.65;;;;;;;-2.78;81.04;99124.85;2108755;83;21023;-80
2022/12/11 14:24:52;;;;;;;27.17;17.42;;;;;;;-2.78;80.73;99119.19;2072083;83;21515;-78
2022/12/11 14:28:00;;;;;;;30.20;18.62;;;;;;;-2.80;80.71;99127.54;2113141;83;21532;-81
2022/12/11 14:31:02;;;;;;;32.25;19.42;;;;;;;-2.79;81.10;99122.73;2108534;83;21121;-81